createdAt,value
2023-04-16T00:00:26.345Z,-11111.88
2023-04-16T00:03:33.022Z,-11111.03
2023-04-16T00:06:41.085Z,-11115.41
2023-04-16T00:09:47.675Z,-11111.59
2023-04-16T00:12:53.921Z,-11109.63
2023-04-16T00:16:00.557Z,-11112.44
2023-04-16T00:19:07.198Z,-11114.56
2023-04-16T00:22:14.869Z,-11108.09
2023-04-16T00:25:21.786Z,-11103.59
2023-04-16T00:28:28.629Z,-11106.56
2023-04-16T00:31:37.989Z,-11108.78
2023-04-16T00:34:44.349Z,-11106.56
2023-04-16T00:37:52.236Z,-11107.97
2023-04-16T00:40:58.970Z,-11103.47
2023-04-16T00:44:05.291Z,-11102.06
2023-04-16T00:47:11.533Z,-11082.13
2023-04-16T00:50:18.286Z,-11068.34
2023-04-16T00:53:26.065Z,-11079.88
2023-04-16T00:56:33.354Z,-11097.41
2023-04-16T00:59:39.713Z,-11086.59
2023-04-16T01:02:46.671Z,-11077.34
2023-04-16T01:05:52.891Z,-11083.22
2023-04-16T01:09:00.824Z,-11088.16
2023-04-16T01:12:06.991Z,-11093.91
2023-04-16T01:15:13.605Z,-11082.41
2023-04-16T01:18:21.275Z,-11075.94
2023-04-16T01:21:29.174Z,-11069.63
2023-04-16T01:24:36.634Z,-11063.44
2023-04-16T01:27:43.022Z,-11059.66
2023-04-16T01:30:49.352Z,-11071.59
2023-04-16T01:33:55.845Z,-11079.03
2023-04-16T01:37:05.047Z,-11071.88
2023-04-16T01:40:12.144Z,-11079.72
2023-04-16T01:43:18.721Z,-11073.84
2023-04-16T01:46:28.917Z,-11091.66
2023-04-16T01:49:36.613Z,-11089.00
2023-04-16T01:52:44.535Z,-11088.00
2023-04-16T01:55:50.980Z,-11095.88
2023-04-16T01:58:57.174Z,-11104.16
2023-04-16T02:02:07.912Z,-11089.28
2023-04-16T02:05:14.401Z,-11100.09
2023-04-16T02:08:22.115Z,-11097.84
2023-04-16T02:11:28.236Z,-11090.81
2023-04-16T02:14:35.036Z,-11074.81
2023-04-16T02:17:41.478Z,-11081.97
2023-04-16T02:20:49.692Z,-11067.78
2023-04-16T02:23:57.655Z,-11071.03
2023-04-16T02:27:03.965Z,-11063.31
2023-04-16T02:30:11.519Z,-11052.63
2023-04-16T02:33:17.839Z,-11043.53
2023-04-16T02:36:24.205Z,-11051.78
2023-04-16T02:39:31.699Z,-11053.34
2023-04-16T02:42:38.060Z,-11067.94
2023-04-16T02:45:44.918Z,-11067.50
2023-04-16T02:48:51.005Z,-11083.38
2023-04-16T02:51:57.313Z,-11083.78
2023-04-16T02:55:04.900Z,-11088.84
2023-04-16T02:58:10.844Z,-11072.84
2023-04-16T03:01:18.306Z,-11073.69
2023-04-16T03:04:24.477Z,-11070.03
2023-04-16T03:07:30.399Z,-11070.88
2023-04-16T03:10:38.042Z,-11073.41
2023-04-16T03:13:45.125Z,-11083.22
2023-04-16T03:16:51.375Z,-11067.50
2023-04-16T03:19:57.730Z,-11068.91
2023-04-16T03:23:03.770Z,-11081.13
2023-04-16T03:26:11.701Z,-11087.44
2023-04-16T03:29:18.083Z,-11082.69
2023-04-16T03:32:24.466Z,-11092.22
2023-04-16T03:35:30.552Z,-11091.94
2023-04-16T03:38:36.972Z,-11094.31
2023-04-16T03:41:44.588Z,-11098.81
2023-04-16T03:44:51.272Z,-11091.66
2023-04-16T03:47:57.378Z,-11093.63
2023-04-16T03:51:03.341Z,-11098.41
2023-04-16T03:54:09.623Z,-11093.06
2023-04-16T03:57:17.185Z,-11093.22
2023-04-16T04:00:23.368Z,-11097.13
2023-04-16T04:03:29.744Z,-11092.38
2023-04-16T04:06:35.899Z,-11093.06
2023-04-16T04:09:42.180Z,-11097.00
2023-04-16T04:12:49.846Z,-11099.81
2023-04-16T04:15:56.738Z,-11097.84
2023-04-16T04:19:02.898Z,-11099.25
2023-04-16T04:22:09.216Z,-11102.62
2023-04-16T04:25:15.392Z,-11107.97
2023-04-16T04:28:22.944Z,-11103.47
2023-04-16T04:31:29.158Z,-11109.06
2023-04-16T04:34:35.152Z,-11112.88
2023-04-16T04:37:41.166Z,-11106.84
2023-04-16T04:40:47.287Z,-11116.38
2023-04-16T04:43:54.783Z,-11120.59
2023-04-16T04:47:01.154Z,-11128.75
2023-04-16T04:50:08.613Z,-11126.78
2023-04-16T04:53:15.141Z,-11123.81
2023-04-16T04:56:21.365Z,-11137.72
2023-04-16T04:59:28.746Z,-11142.66
2023-04-16T05:02:35.153Z,-11145.88
2023-04-16T05:05:41.871Z,-11120.31
2023-04-16T05:08:47.957Z,-11123.13
2023-04-16T05:11:54.905Z,-11131.69
2023-04-16T05:15:02.439Z,-11133.22
2023-04-16T05:18:08.639Z,-11136.03
2023-04-16T05:21:15.080Z,-11145.47
2023-04-16T05:24:21.673Z,-11134.22
2023-04-16T05:27:28.020Z,-11141.66
2023-04-16T05:30:35.728Z,-11130.97
2023-04-16T05:33:42.219Z,-11144.34
2023-04-16T05:36:48.350Z,-11131.81
2023-04-16T05:39:54.468Z,-11147.69
2023-04-16T05:43:00.917Z,-11130.69
2023-04-16T05:46:08.313Z,-11153.47
2023-04-16T05:49:14.539Z,-11151.22
2023-04-16T05:52:20.478Z,-11153.47
2023-04-16T05:55:26.664Z,-11166.13
2023-04-16T05:58:32.901Z,-11201.81
2023-04-16T06:01:40.929Z,-11214.19
2023-04-16T06:04:47.416Z,-11225.44
2023-04-16T06:07:53.891Z,-11214.34
2023-04-16T06:10:59.994Z,-11248.25
2023-04-16T06:14:06.262Z,-11246.56
2023-04-16T06:17:13.698Z,-11247.97
2023-04-16T06:20:19.732Z,-11256.13
2023-04-16T06:23:26.273Z,-11265.13
2023-04-16T06:26:32.438Z,-11261.75
2023-04-16T06:29:41.710Z,-11257.53
2023-04-16T06:32:50.851Z,-11268.78
2023-04-16T06:35:56.953Z,-11265.41
2023-04-16T06:39:03.527Z,-11277.38
2023-04-16T06:42:09.738Z,-11308.19
2023-04-16T06:45:15.882Z,-11317.34
2023-04-16T06:48:23.668Z,-11277.78
2023-04-16T06:51:30.078Z,-11249.50
2023-04-16T06:54:36.484Z,-11276.25
2023-04-16T06:57:42.610Z,-11317.78
2023-04-16T07:00:48.767Z,-11334.09
2023-04-16T07:03:56.575Z,-11310.03
2023-04-16T07:07:03.090Z,-11319.47
2023-04-16T07:10:10.297Z,-11337.78
2023-04-16T07:13:16.550Z,-11329.03
2023-04-16T07:16:23.004Z,-11318.91
2023-04-16T07:19:32.820Z,-11331.84
2023-04-16T07:22:39.117Z,-11355.38
2023-04-16T07:25:45.998Z,-11376.94
2023-04-16T07:28:52.553Z,-11374.97
2023-04-16T07:31:59.172Z,-11357.50
2023-04-16T07:35:08.038Z,-11354.25
2023-04-16T07:38:14.804Z,-11374.97
2023-04-16T07:41:21.188Z,-11363.41
2023-04-16T07:44:27.871Z,-11352.13
2023-04-16T07:47:34.057Z,-11340.31
2023-04-16T07:50:43.637Z,-11405.81
2023-04-16T07:53:50.246Z,-11412.72
2023-04-16T07:56:56.493Z,-11391.59
2023-04-16T08:00:05.121Z,-11422.72
2023-04-16T08:03:11.517Z,-11418.66
2023-04-16T08:06:19.329Z,-11421.47
2023-04-16T08:09:28.736Z,-11431.63
2023-04-16T08:12:35.025Z,-11457.28
2023-04-16T08:15:41.940Z,-11448.53
2023-04-16T08:18:48.680Z,-11461.38
2023-04-16T08:21:57.208Z,-11466.44
2023-04-16T08:25:05.655Z,-11431.34
2023-04-16T08:28:11.927Z,-11446.28
2023-04-16T08:31:18.199Z,-11446.84
2023-04-16T08:34:24.481Z,-11451.63
2023-04-16T08:37:31.928Z,-11470.94
2023-04-16T08:40:41.572Z,-11448.53
2023-04-16T08:43:51.846Z,-11463.75
2023-04-16T08:46:59.309Z,-11461.09
2023-04-16T08:50:06.586Z,-11458.53
2023-04-16T08:53:19.744Z,-11428.53
2023-04-16T08:56:27.164Z,-11431.91
2023-04-16T08:59:34.524Z,-11407.94
2023-04-16T09:02:41.281Z,-11438.38
2023-04-16T09:05:48.216Z,-11442.75
2023-04-16T09:08:58.261Z,-11440.91
2023-04-16T09:12:05.961Z,-11442.19
2023-04-16T09:15:13.663Z,-11475.91
2023-04-16T09:18:20.511Z,-11466.16
2023-04-16T09:21:28.219Z,-11470.09
2023-04-16T09:24:38.671Z,-11472.94
2023-04-16T09:27:45.595Z,-11451.63
2023-04-16T09:30:51.899Z,-11455.88
2023-04-16T09:34:05.660Z,-11429.09
2023-04-16T09:37:18.850Z,-11425.28
2023-04-16T09:40:31.400Z,-11439.66
2023-04-16T09:43:38.418Z,-11449.81
2023-04-16T09:46:44.996Z,-11469.41
2023-04-16T09:49:51.449Z,-11421.47
2023-04-16T09:52:57.800Z,-11403.72
2023-04-16T09:56:07.855Z,-11406.81
2023-04-16T09:59:18.826Z,-11425.69
2023-04-16T10:02:28.800Z,-11419.78
2023-04-16T10:05:35.319Z,-11412.03
2023-04-16T10:08:45.144Z,-11434.16
2023-04-16T10:11:53.129Z,-11431.34
2023-04-16T10:14:59.248Z,-11431.06
2023-04-16T10:18:06.568Z,-11443.88
2023-04-16T10:21:13.354Z,-11416.25
2023-04-16T10:24:19.952Z,-11401.59
2023-04-16T10:27:28.523Z,-11412.88
2023-04-16T10:30:35.081Z,-11422.59
2023-04-16T10:33:42.791Z,-11450.50
2023-04-16T10:36:50.857Z,-11422.59
2023-04-16T10:39:57.240Z,-11421.19
2023-04-16T10:43:08.110Z,-11418.22
2023-04-16T10:46:22.837Z,-11432.59
2023-04-16T10:49:29.518Z,-11451.91
2023-04-16T10:52:35.855Z,-11422.72
2023-04-16T10:55:42.319Z,-11429.38
2023-04-16T10:58:50.558Z,-11438.94
2023-04-16T11:01:59.794Z,-11451.22
2023-04-16T11:05:06.733Z,-11444.31
2023-04-16T11:08:16.179Z,-11431.19
2023-04-16T11:11:22.606Z,-11430.22
2023-04-16T11:14:30.524Z,-11410.19
2023-04-16T11:17:40.214Z,-11422.44
2023-04-16T11:20:46.854Z,-11424.56
2023-04-16T11:23:54.770Z,-11422.59
2023-04-16T11:27:01.811Z,-11433.03
2023-04-16T11:30:10.607Z,-11463.06
2023-04-16T11:33:16.920Z,-11439.38
2023-04-16T11:36:25.469Z,-11411.88
2023-04-16T11:39:33.393Z,-11425.97
2023-04-16T11:42:41.172Z,-11430.91
2023-04-16T11:45:59.860Z,-11411.47
2023-04-16T11:49:05.654Z,-11432.31
2023-04-16T11:52:12.456Z,-11419.22
2023-04-16T11:55:19.138Z,-11404.13
2023-04-16T11:58:25.878Z,-11403.72
2023-04-16T12:01:35.074Z,-11409.06
2023-04-16T12:04:42.529Z,-11427.94
2023-04-16T12:07:48.746Z,-11425.41
2023-04-16T12:10:56.634Z,-11417.66
2023-04-16T12:14:09.813Z,-11422.59
2023-04-16T12:17:22.004Z,-11417.22
2023-04-16T12:20:28.405Z,-11408.22
2023-04-16T12:23:35.705Z,-11394.97
2023-04-16T12:26:44.118Z,-11410.34
2023-04-16T12:30:05.408Z,-11394.69
2023-04-16T12:33:21.297Z,-11397.78
2023-04-16T12:36:27.816Z,-11384.81
2023-04-16T12:39:34.150Z,-11388.75
2023-04-16T12:42:40.467Z,-11369.03
2023-04-16T12:45:46.872Z,-11375.81
2023-04-16T12:48:54.435Z,-11371.56
2023-04-16T12:52:00.621Z,-11368.47
2023-04-16T12:55:07.824Z,-11354.66
2023-04-16T12:58:14.123Z,-11341.00
2023-04-16T13:01:21.127Z,-11349.47
2023-04-16T13:04:28.840Z,-11348.75
2023-04-16T13:07:35.986Z,-11352.41
2023-04-16T13:10:42.867Z,-11333.28
2023-04-16T13:13:49.242Z,-11317.34
2023-04-16T13:16:55.506Z,-11315.81
2023-04-16T13:20:03.392Z,-11314.69
2023-04-16T13:23:09.985Z,-11311.84
2023-04-16T13:26:17.560Z,-11309.03
2023-04-16T13:29:24.297Z,-11315.94
2023-04-16T13:32:30.881Z,-11319.19
2023-04-16T13:35:38.870Z,-11318.34
2023-04-16T13:38:45.925Z,-11313.69
2023-04-16T13:41:52.546Z,-11299.47
2023-04-16T13:44:59.159Z,-11294.41
2023-04-16T13:48:05.946Z,-11307.63
2023-04-16T13:51:15.452Z,-11303.41
2023-04-16T13:57:45.081Z,-11311.28
2023-04-16T14:00:51.335Z,-11302.72
2023-04-16T14:03:57.413Z,-11301.59
2023-04-16T14:07:05.020Z,-11295.94
2023-04-16T14:10:12.117Z,-11290.19
2023-04-16T14:13:18.292Z,-11286.78
2023-04-16T14:16:24.749Z,-11293.28
2023-04-16T14:19:32.092Z,-11284.13
2023-04-16T14:22:40.071Z,-11292.72
2023-04-16T14:25:46.449Z,-11293.56
2023-04-16T14:28:52.791Z,-11283.69
2023-04-16T14:31:59.258Z,-11286.22
2023-04-16T14:35:06.728Z,-11286.78
2023-04-16T14:38:14.493Z,-11281.59
2023-04-16T14:41:20.927Z,-11284.97
2023-04-16T14:44:27.349Z,-11295.81
2023-04-16T14:47:33.916Z,-11297.50
2023-04-16T14:50:43.745Z,-11294.97
2023-04-16T14:53:51.486Z,-11293.41
2023-04-16T14:56:57.819Z,-11294.53
2023-04-16T15:00:07.924Z,-11296.66
2023-04-16T15:03:14.269Z,-11305.25
2023-04-16T15:06:20.556Z,-11305.25
2023-04-16T15:09:28.586Z,-11306.78
2023-04-16T15:12:35.221Z,-11311.16
2023-04-16T15:15:41.430Z,-11310.44
2023-04-16T15:18:47.666Z,-11316.09
2023-04-16T15:21:53.854Z,-11307.34
2023-04-16T15:25:01.873Z,-11313.28
2023-04-16T15:28:08.095Z,-11313.13
2023-04-16T15:31:14.301Z,-11307.63
2023-04-16T15:34:20.621Z,-11303.00
2023-04-16T15:37:27.107Z,-11298.06
2023-04-16T15:40:34.679Z,-11287.34
2023-04-16T15:43:41.177Z,-11287.50
2023-04-16T15:46:48.535Z,-11291.72
2023-04-16T15:49:54.644Z,-11293.13
2023-04-16T15:53:00.800Z,-11287.63
2023-04-16T15:56:08.720Z,-11276.25
2023-04-16T15:59:15.168Z,-11281.44
2023-04-16T16:02:21.348Z,-11280.75
2023-04-16T16:05:27.761Z,-11285.53
2023-04-16T16:08:37.173Z,-11290.03
2023-04-16T16:11:45.085Z,-11284.41
2023-04-16T16:14:52.093Z,-11284.41
2023-04-16T16:17:58.790Z,-11293.13
2023-04-16T16:21:05.522Z,-11285.13
2023-04-16T16:24:12.248Z,-11282.56
2023-04-16T16:27:20.875Z,-11278.50
2023-04-16T16:30:27.429Z,-11283.56
2023-04-16T16:33:33.622Z,-11282.44
2023-04-16T16:36:39.942Z,-11279.19
2023-04-16T16:39:46.501Z,-11265.56
2023-04-16T16:42:54.145Z,-11269.63
2023-04-16T16:46:00.745Z,-11269.34
2023-04-16T16:49:09.408Z,-11273.56
2023-04-16T16:52:16.092Z,-11267.66
2023-04-16T16:55:22.516Z,-11265.28
2023-04-16T16:58:30.358Z,-11251.91
2023-04-16T17:01:36.849Z,-11249.94
2023-04-16T17:04:43.143Z,-11250.06
2023-04-16T17:07:49.272Z,-11254.16
2023-04-16T17:10:55.434Z,-11246.97
2023-04-16T17:14:03.295Z,-11251.63
2023-04-16T17:17:10.070Z,-11248.53
2023-04-16T17:20:16.567Z,-11247.41
2023-04-16T17:23:22.652Z,-11249.37
2023-04-16T17:26:29.128Z,-11241.34
2023-04-16T17:29:36.995Z,-11245.44
2023-04-16T17:32:43.504Z,-11246.28
2023-04-16T17:35:49.795Z,-11243.03
2023-04-16T17:38:56.359Z,-11246.28
2023-04-16T17:42:04.138Z,-11251.34
2023-04-16T17:45:13.213Z,-11250.50
2023-04-16T17:48:19.573Z,-11247.53
2023-04-16T17:51:26.024Z,-11247.97
2023-04-16T17:54:32.668Z,-11249.50
2023-04-16T17:57:38.944Z,-11249.22
2023-04-16T18:00:46.853Z,-11248.25
2023-04-16T18:03:53.478Z,-11244.59
2023-04-16T18:07:00.005Z,-11246.00
2023-04-16T18:10:07.062Z,-11246.84
2023-04-16T18:13:13.151Z,-11251.06
2023-04-16T18:16:22.612Z,-11247.41
2023-04-16T18:19:29.564Z,-11242.59
2023-04-16T18:22:35.904Z,-11246.41
2023-04-16T18:25:41.950Z,-11245.44
2023-04-16T18:28:48.126Z,-11247.13
2023-04-16T18:31:56.240Z,-11247.13
2023-04-16T18:35:02.386Z,-11245.72
2023-04-16T18:38:08.621Z,-11243.88
2023-04-16T18:41:18.359Z,-11237.41
2023-04-16T18:44:24.611Z,-11238.94
2023-04-16T18:47:32.292Z,-11239.50
2023-04-16T18:50:38.791Z,-11227.13
2023-04-16T18:53:45.850Z,-11228.25
2023-04-16T18:56:52.228Z,-11233.19
2023-04-16T18:59:58.263Z,-11222.34
2023-04-16T19:03:07.685Z,-11230.38
2023-04-16T19:06:14.264Z,-11232.63
2023-04-16T19:09:20.789Z,-11228.25
2023-04-16T19:12:27.076Z,-11227.41
2023-04-16T19:15:34.875Z,-11230.22
2023-04-16T19:18:42.934Z,-11229.66
2023-04-16T19:21:49.797Z,-11233.19
2023-04-16T19:24:55.972Z,-11235.88
2023-04-16T19:28:02.576Z,-11232.06
2023-04-16T19:31:09.965Z,-11233.59
2023-04-16T19:34:18.046Z,-11231.06
2023-04-16T19:37:24.414Z,-11234.19
2023-04-16T19:40:30.835Z,-11229.66
2023-04-16T19:43:37.186Z,-11226.84
2023-04-16T19:46:43.646Z,-11225.44
2023-04-16T19:49:51.283Z,-11227.97
2023-04-16T19:52:57.545Z,-11228.25
2023-04-16T19:56:03.675Z,-11224.88
2023-04-16T19:59:10.181Z,-11228.69
2023-04-16T20:02:16.901Z,-11229.94
2023-04-16T20:05:26.208Z,-11232.91
2023-04-16T20:08:32.116Z,-11226.56
2023-04-16T20:11:38.598Z,-11227.69
2023-04-16T20:14:44.995Z,-11229.09
2023-04-16T20:17:52.457Z,-11231.06
2023-04-16T20:21:04.739Z,-11227.56
2023-04-16T20:24:11.175Z,-11227.13
2023-04-16T20:27:19.532Z,-11221.66
2023-04-16T20:30:29.300Z,-11221.38
2023-04-16T20:33:35.503Z,-11224.88
2023-04-16T20:36:43.119Z,-11222.50
2023-04-16T20:39:50.202Z,-11223.06
2023-04-16T20:42:56.628Z,-11222.06
2023-04-16T20:46:03.111Z,-11226.28
2023-04-16T20:49:09.886Z,-11217.00
2023-04-16T20:52:17.926Z,-11215.31
2023-04-16T20:55:23.956Z,-11218.41
2023-04-16T20:58:30.698Z,-11213.91
2023-04-16T21:01:37.096Z,-11211.53
2023-04-16T21:04:43.420Z,-11212.66
2023-04-16T21:07:51.281Z,-11207.72
2023-04-16T21:10:58.215Z,-11202.66
2023-04-16T21:14:05.004Z,-11206.59
2023-04-16T21:17:11.086Z,-11205.19
2023-04-16T21:20:17.665Z,-11196.63
2023-04-16T21:23:25.518Z,-11199.28
2023-04-16T21:26:32.071Z,-11196.47
2023-04-16T21:29:38.326Z,-11193.25
2023-04-16T21:32:45.719Z,-11190.16
2023-04-16T21:35:55.369Z,-11191.41
2023-04-16T21:39:03.399Z,-11188.31
2023-04-16T21:42:09.743Z,-11187.63
2023-04-16T21:45:16.577Z,-11182.56
2023-04-16T21:48:22.639Z,-11179.19
2023-04-16T21:51:30.148Z,-11179.03
2023-04-16T21:54:37.697Z,-11176.09
2023-04-16T21:57:43.934Z,-11179.03
2023-04-16T22:00:51.236Z,-11179.03
2023-04-16T22:03:57.496Z,-11176.22
2023-04-16T22:07:03.665Z,-11170.91
2023-04-16T22:10:13.592Z,-11167.81
2023-04-16T22:13:22.871Z,-11169.50
2023-04-16T22:16:29.176Z,-11172.31
2023-04-16T22:19:37.420Z,-11164.16
2023-04-16T22:22:44.296Z,-11169.22
2023-04-16T22:25:52.305Z,-11164.56
2023-04-16T22:28:58.365Z,-11156.28
2023-04-16T22:32:04.602Z,-11159.38
2023-04-16T22:35:11.084Z,-11154.31
2023-04-16T22:38:17.649Z,-11147.28
2023-04-16T22:41:25.430Z,-11153.75
2023-04-16T22:44:31.431Z,-11135.19
2023-04-16T22:47:37.558Z,-11138.56
2023-04-16T22:50:48.768Z,-11153.31
2023-04-16T22:53:55.197Z,-11150.78
2023-04-16T22:57:02.558Z,-11148.97
2023-04-16T23:00:15.712Z,-11153.47
2023-04-16T23:03:22.122Z,-11153.19
2023-04-16T23:06:28.361Z,-11141.38
2023-04-16T23:09:34.644Z,-11150.94
2023-04-16T23:12:42.269Z,-11147.00
2023-04-16T23:15:48.506Z,-11148.41
2023-04-16T23:18:54.450Z,-11151.91
2023-04-16T23:22:00.359Z,-11148.13
2023-04-16T23:25:07.963Z,-11129.44
2023-04-16T23:28:15.913Z,-11119.75
2023-04-16T23:31:21.855Z,-11125.50
2023-04-16T23:34:28.022Z,-11120.44
2023-04-16T23:37:34.175Z,-11124.81
2023-04-16T23:40:40.469Z,-11127.63
2023-04-16T23:43:48.152Z,-11125.94
2023-04-16T23:46:54.303Z,-11124.53
2023-04-16T23:50:00.637Z,-11117.09
2023-04-16T23:53:06.720Z,-11117.50
2023-04-16T23:56:13.380Z,-11118.06
2023-04-16T23:59:21.162Z,-11134.06
